バンコク/スワンナプーム の空港の天気 - METARとTAF

スワンナプーム国際空港 ( VTBS / BKK ) - タイ サムットプラーカーン県 (バンコク近郊)
飛行場実況気象(Metar)
観測時間09/25 10:30 ICT (09/25 03:30 UTC)
風向・風速南南西 3m/s
視程10km以上
天気現象
少しの雲 雲底高度 610m
気温31℃
湿度62%
気圧1012hPa
METARVTBS 250330Z 20006KT 160V250 9999 FEW020 31/23 Q1012 NOSIG
過去の天気等 Google飛行場航空写真 Wunderground天気予報

過去48時間のMETAR

飛行場予報(TAF)
発表時間: 9/25 06:00 ICT (9/24 23:00 UTC)
予報対象時間: 25日7時 ICT ~ 26日13時 ICT
風向・風速東 3m/s
視程8000m
全天の4割程度の雲 雲底高度 610m
25日9時 ICT ~ 25日11時 ICT に徐々に
風向・風速南南西 3m/s
視程10km以上
25日12時 ICT ~ 25日17時 ICT に一時的に
風向・風速南西 8m/s
視程5000m
天気現象雷雨
少しの積乱雲 雲底高度 550m
全天の4割程度の雲 雲底高度 1070m
TAF VTBS 242300Z 2500/2606 08005KT 8000 SCT020
BECMG 2502/2504 20005KT 9999
TEMPO 2505/2510 22015KT 5000 TSRA FEW018CB SCT035